Time;durP1;ratioP1;P1;durP2;ratioP2;P2;SDS_P1;SDS_P2;PMS_P1;PMS_P2;Temp;Humidity;BMP_temperature;BMP_pressure;BME280_temperature;BME280_humidity;BME280_pressure;Samples;Min_cycle;Max_cycle;Signal;HPM_P1;HPM_P2
2023/04/01 00:01:55;;;;;;;;;;;;;;;;;;4929775;29;19915;-82
2023/04/01 00:04:20;;;;;;;;;;;;;;;;;;4929472;29;19922;-81
2023/04/01 00:06:47;;;;;;;;;;;;;;;;;;4927971;29;20009;-82
2023/04/01 00:09:12;;;;;;;;;;;;;;;;;;4927237;29;19915;-82
2023/04/01 00:11:38;;;;;;;;;;;;;;;;;;4929614;29;19915;-82
2023/04/01 00:14:03;;;;;;;;;;;;;;;;;;4893616;29;19915;-82
2023/04/01 00:16:29;;;;;;;;;;;;;;;;;;4924990;29;20311;-82
2023/04/01 00:18:55;;;;;;;;;;;;;;;;;;4933448;29;19934;-82
2023/04/01 00:21:20;;;;;;;;;;;;;;;;;;4910650;29;19923;-82
2023/04/01 00:23:46;;;;;;;;;;;;;;;;;;4915995;29;19915;-81
2023/04/01 00:26:12;;;;;;;;;;;;;;;;;;4913641;29;20279;-82
2023/04/01 00:28:37;;;;;;;;;;;;;;;;;;4923349;23;20328;-88
2023/04/01 00:31:02;;;;;;;;;;;;;;;;;;4901446;29;19934;-87
2023/04/01 00:33:28;;;;;;;;;;;;;;;;;;4917131;29;20009;-88
2023/04/01 00:35:53;;;;;;;;;;;;;;;;;;4917851;29;20379;-89
2023/04/01 00:38:19;;;;;;;;;;;;;;;;;;4918168;29;19915;-87
2023/04/01 00:40:44;;;;;;;;;;;;;;;;;;4918244;29;20418;-88
2023/04/01 00:43:10;;;;;;;;;;;;;;;;;;4918430;29;19916;-87
2023/04/01 00:45:35;;;;;;;;;;;;;;;;;;4917009;29;20393;-86
2023/04/01 00:48:01;;;;;;;;;;;;;;;;;;4916460;29;19922;-86
2023/04/01 00:50:26;;;;;;;;;;;;;;;;;;4917832;29;20034;-89
2023/04/01 00:52:51;;;;;;;;;;;;;;;;;;4916559;29;19978;-89
2023/04/01 00:55:17;;;;;;;;;;;;;;;;;;4916515;29;20010;-90
2023/04/01 00:57:42;;;;;;;;;;;;;;;;;;4900695;29;19969;-88
2023/04/01 01:00:09;;;;;;;;;;;;;;;;;;4916706;29;19963;-89
2023/04/01 01:02:34;;;;;;;;;;;;;;;;;;4901233;29;19915;-89
2023/04/01 01:05:00;;;;;;;;;;;;;;;;;;4917650;29;20323;-89
2023/04/01 01:07:25;;;;;;;;;;;;;;;;;;4916690;29;19970;-87
2023/04/01 01:09:50;;;;;;;;;;;;;;;;;;4901109;29;19947;-89
2023/04/01 01:12:16;;;;;;;;;;;;;;;;;;4901158;29;19962;-88
2023/04/01 01:14:41;;;;;;;;;;;;;;;;;;4916104;29;19919;-88
2023/04/01 01:17:07;;;;;;;;;;;;;;;;;;4916297;29;19919;-89
2023/04/01 01:19:32;;;;;;;;;;;;;;;;;;4916375;29;19915;-89
2023/04/01 01:21:57;;;;;;;;;;;;;;;;;;4916328;29;20005;-87
2023/04/01 01:24:23;;;;;;;;;;;;;;;;;;4917416;29;20294;-88
2023/04/01 01:26:48;;;;;;;;;;;;;;;;;;4922679;29;19918;-87
2023/04/01 01:29:13;;;;;;;;;;;;;;;;;;4921604;29;19919;-87
2023/04/01 01:31:39;;;;;;;;;;;;;;;;;;4924715;29;19916;-83
2023/04/01 01:34:04;;;;;;;;;;;;;;;;;;4931454;29;19919;-87
2023/04/01 01:36:30;;;;;;;;;;;;;;;;;;4932701;29;19915;-87
2023/04/01 01:38:55;;;;;;;;;;;;;;;;;;4923981;29;19915;-88
2023/04/01 01:41:21;;;;;;;;;;;;;;;;;;4902366;29;19970;-89
2023/04/01 01:43:47;;;;;;;;;;;;;;;;;;4900388;29;19922;-89
2023/04/01 01:46:14;;;;;;;;;;;;;;;;;;4915826;29;19919;-90
2023/04/01 01:48:39;;;;;;;;;;;;;;;;;;4916042;29;20047;-90
2023/04/01 01:51:05;;;;;;;;;;;;;;;;;;4916335;29;19915;-88
2023/04/01 01:53:30;;;;;;;;;;;;;;;;;;4915805;29;19962;-86
2023/04/01 01:55:55;;;;;;;;;;;;;;;;;;4918427;29;19915;-85
2023/04/01 01:58:21;;;;;;;;;;;;;;;;;;4922122;29;19919;-87
2023/04/01 02:00:46;;;;;;;;;;;;;;;;;;4927621;29;19915;-87
2023/04/01 02:03:12;;;;;;;;;;;;;;;;;;4930204;29;19916;-86
2023/04/01 02:05:37;;;;;;;;;;;;;;;;;;4927968;29;19916;-84
2023/04/01 02:08:07;;;;;;;;;;;;;;;;;;4927572;29;19925;-85
2023/04/01 02:10:32;;;;;;;;;;;;;;;;;;4926150;29;19965;-86
2023/04/01 02:12:58;;;;;;;;;;;;;;;;;;4923415;29;19926;-88
2023/04/01 02:15:23;;;;;;;;;;;;;;;;;;4922103;29;19915;-86
2023/04/01 02:17:48;;;;;;;;;;;;;;;;;;4925633;29;19915;-87
2023/04/01 02:20:14;;;;;;;;;;;;;;;;;;4927543;29;19915;-85
2023/04/01 02:22:41;;;;;;;;;;;;;;;;;;4930169;29;19915;-87
2023/04/01 02:25:07;;;;;;;;;;;;;;;;;;4910896;29;19923;-86
2023/04/01 02:27:32;;;;;;;;;;;;;;;;;;4924141;29;20356;-85
2023/04/01 02:29:58;;;;;;;;;;;;;;;;;;4888011;29;19919;-85
2023/04/01 02:32:23;;;;;;;;;;;;;;;;;;4919503;29;19911;-85
2023/04/01 02:34:49;;;;;;;;;;;;;;;;;;4916511;29;19919;-89
2023/04/01 02:37:14;;;;;;;;;;;;;;;;;;4917975;29;20368;-87
2023/04/01 02:39:40;;;;;;;;;;;;;;;;;;4916506;29;19922;-87
2023/04/01 02:42:06;;;;;;;;;;;;;;;;;;4918184;29;20008;-85
2023/04/01 02:44:31;;;;;;;;;;;;;;;;;;4919998;29;20399;-88
2023/04/01 02:46:57;;;;;;;;;;;;;;;;;;4919327;29;19915;-86
2023/04/01 02:49:22;;;;;;;;;;;;;;;;;;4920437;29;19971;-85
2023/04/01 02:51:48;;;;;;;;;;;;;;;;;;4921686;29;19938;-82
2023/04/01 02:54:13;;;;;;;;;;;;;;;;;;4893094;29;19944;-84
2023/04/01 02:56:38;;;;;;;;;;;;;;;;;;4896781;29;19915;-81
2023/04/01 02:59:04;;;;;;;;;;;;;;;;;;4896112;29;19921;-84
2023/04/01 03:01:29;;;;;;;;;;;;;;;;;;4930633;29;19926;-82
2023/04/01 03:03:55;;;;;;;;;;;;;;;;;;4928485;29;19915;-80
2023/04/01 03:06:20;;;;;;;;;;;;;;;;;;4908941;29;19915;-86
2023/04/01 03:08:46;;;;;;;;;;;;;;;;;;4893913;29;19915;-84
2023/04/01 03:11:12;;;;;;;;;;;;;;;;;;4940901;29;19911;-85
2023/04/01 03:13:37;;;;;;;;;;;;;;;;;;4940753;29;19999;-83
2023/04/01 03:16:03;;;;;;;;;;;;;;;;;;4941727;29;19914;-81
2023/04/01 03:18:28;;;;;;;;;;;;;;;;;;4941783;29;19980;-81
2023/04/01 03:20:54;;;;;;;;;;;;;;;;;;4939611;29;19899;-84
2023/04/01 03:23:20;;;;;;;;;;;;;;;;;;4942725;29;19958;-81
2023/04/01 03:25:46;;;;;;;;;;;;;;;;;;4926567;29;19959;-83
2023/04/01 03:28:12;;;;;;;;;;;;;;;;;;4931103;29;20314;-83
2023/04/01 03:30:38;;;;;;;;;;;;;;;;;;4923581;29;19911;-84
2023/04/01 03:33:03;;;;;;;;;;;;;;;;;;4906026;29;19919;-84
2023/04/01 03:35:30;;;;;;;;;;;;;;;;;;4919905;29;19926;-84
2023/04/01 03:37:56;;;;;;;;;;;;;;;;;;4920766;29;19915;-84
2023/04/01 03:40:21;;;;;;;;;;;;;;;;;;4921585;29;19947;-87
2023/04/01 03:42:46;;;;;;;;;;;;;;;;;;4920839;29;20362;-85
2023/04/01 03:45:13;;;;;;;;;;;;;;;;;;4905826;29;19915;-84
2023/04/01 03:47:39;;;;;;;;;;;;;;;;;;4921144;29;19916;-85
2023/04/01 03:50:04;;;;;;;;;;;;;;;;;;4923763;29;19950;-84
2023/04/01 03:52:30;;;;;;;;;;;;;;;;;;4907467;29;19922;-85
2023/04/01 03:54:56;;;;;;;;;;;;;;;;;;4923140;29;19915;-85
2023/04/01 03:57:21;;;;;;;;;;;;;;;;;;4906732;29;20248;-87
2023/04/01 03:59:46;;;;;;;;;;;;;;;;;;4919997;29;19922;-87
2023/04/01 04:02:12;;;;;;;;;;;;;;;;;;4918937;29;19916;-87
2023/04/01 04:04:37;;;;;;;;;;;;;;;;;;4888262;29;19916;-86
2023/04/01 04:07:03;;;;;;;;;;;;;;;;;;4906565;29;19922;-87
2023/04/01 04:09:35;;;;;;;;;;;;;;;;;;4922567;29;19938;-84
2023/04/01 04:12:01;;;;;;;;;;;;;;;;;;4903288;29;20379;-86
2023/04/01 04:14:26;;;;;;;;;;;;;;;;;;4918336;29;19926;-84
2023/04/01 04:16:52;;;;;;;;;;;;;;;;;;4918120;29;19922;-86
2023/04/01 04:19:17;;;;;;;;;;;;;;;;;;4918411;29;20415;-85
2023/04/01 04:21:42;;;;;;;;;;;;;;;;;;4918965;29;19975;-86
2023/04/01 04:24:08;;;;;;;;;;;;;;;;;;4903591;29;20010;-85
2023/04/01 04:26:59;;;;;;;;;;;;;;;;;;4921850;29;20402;-83
2023/04/01 04:29:25;;;;;;;;;;;;;;;;;;4920955;29;19919;-84
2023/04/01 04:31:51;;;;;;;;;;;;;;;;;;4887253;29;19919;-85
2023/04/01 04:34:18;;;;;;;;;;;;;;;;;;4888933;29;19919;-85
2023/04/01 04:36:43;;;;;;;;;;;;;;;;;;4918594;29;19922;-84
2023/04/01 04:39:09;;;;;;;;;;;;;;;;;;4903276;29;20360;-86
2023/04/01 04:41:37;;;;;;;;;;;;;;;;;;4920260;29;19985;-83
2023/04/01 04:44:02;;;;;;;;;;;;;;;;;;4902998;29;19915;-89
2023/04/01 04:46:28;;;;;;;;;;;;;;;;;;4918328;29;20291;-87
2023/04/01 04:49:00;;;;;;;;;;;;;;;;;;4917424;29;19922;-86
2023/04/01 04:51:26;;;;;;;;;;;;;;;;;;4917733;29;19915;-88
2023/04/01 04:53:51;;;;;;;;;;;;;;;;;;4901781;29;19958;-89
2023/04/01 04:56:17;;;;;;;;;;;;;;;;;;4901822;29;19949;-87
2023/04/01 04:58:48;;;;;;;;;;;;;;;;;;4902696;29;19954;-87
2023/04/01 05:01:17;;;;;;;;;;;;;;;;;;4887330;29;19915;-86
2023/04/01 05:03:42;;;;;;;;;;;;;;;;;;4916850;29;19915;-88
2023/04/01 05:06:08;;;;;;;;;;;;;;;;;;4916421;29;19922;-85
2023/04/01 05:08:33;;;;;;;;;;;;;;;;;;4917524;29;19927;-85
2023/04/01 05:10:59;;;;;;;;;;;;;;;;;;4901053;29;20019;-89
2023/04/01 05:13:24;;;;;;;;;;;;;;;;;;4917130;29;19966;-87
2023/04/01 05:15:50;;;;;;;;;;;;;;;;;;4918200;29;19922;-87
2023/04/01 05:18:16;;;;;;;;;;;;;;;;;;4920171;29;19982;-86
2023/04/01 05:20:41;;;;;;;;;;;;;;;;;;4922553;29;19926;-87
2023/04/01 05:23:06;;;;;;;;;;;;;;;;;;4921856;29;19922;-88
2023/04/01 05:25:32;;;;;;;;;;;;;;;;;;4923115;29;19965;-87
2023/04/01 05:27:57;;;;;;;;;;;;;;;;;;4904902;29;19916;-86
2023/04/01 05:30:23;;;;;;;;;;;;;;;;;;4922431;29;19919;-86
2023/04/01 05:33:17;;;;;;;;;;;;;;;;;;4919586;29;19926;-85
2023/04/01 05:35:43;;;;;;;;;;;;;;;;;;4915710;29;19915;-87
2023/04/01 05:38:08;;;;;;;;;;;;;;;;;;4917221;29;20339;-88
2023/04/01 05:40:34;;;;;;;;;;;;;;;;;;4900064;29;20352;-87
2023/04/01 05:43:00;;;;;;;;;;;;;;;;;;4915889;29;19915;-87
2023/04/01 05:45:25;;;;;;;;;;;;;;;;;;4916421;29;20002;-88
2023/04/01 05:48:15;;;;;;;;;;;;;;;;;;4916323;29;19915;-86
2023/04/01 05:50:41;;;;;;;;;;;;;;;;;;4916007;29;19943;-88
2023/04/01 05:53:06;;;;;;;;;;;;;;;;;;4900127;29;19978;-86
2023/04/01 05:55:31;;;;;;;;;;;;;;;;;;4916041;29;19979;-88
2023/04/01 05:57:57;;;;;;;;;;;;;;;;;;4916424;29;19915;-89
2023/04/01 06:00:22;;;;;;;;;;;;;;;;;;4884661;29;19915;-87
2023/04/01 06:02:48;;;;;;;;;;;;;;;;;;4899857;29;19915;-87
2023/04/01 06:05:13;;;;;;;;;;;;;;;;;;4916070;29;19915;-85
2023/04/01 06:07:39;;;;;;;;;;;;;;;;;;4915324;29;19915;-86
2023/04/01 06:10:04;;;;;;;;;;;;;;;;;;4916672;29;19915;-87
2023/04/01 06:12:29;;;;;;;;;;;;;;;;;;4915415;29;19927;-89
2023/04/01 06:14:57;;;;;;;;;;;;;;;;;;4915295;29;19915;-87
2023/04/01 06:17:22;;;;;;;;;;;;;;;;;;4915129;29;20438;-86
2023/04/01 06:19:48;;;;;;;;;;;;;;;;;;4915443;29;19915;-89
2023/04/01 06:22:14;;;;;;;;;;;;;;;;;;4915702;29;20319;-85
2023/04/01 06:24:42;;;;;;;;;;;;;;;;;;4884982;29;19969;-87
2023/04/01 06:27:07;;;;;;;;;;;;;;;;;;4915835;29;20299;-87
2023/04/01 06:29:33;;;;;;;;;;;;;;;;;;4932394;23;19931;-78
2023/04/01 06:31:58;;;;;;;;;;;;;;;;;;4905972;29;20001;-79
2023/04/01 06:34:26;;;;;;;;;;;;;;;;;;4889891;29;19930;-80
2023/04/01 06:36:52;;;;;;;;;;;;;;;;;;4906183;29;19972;-79
2023/04/01 06:39:18;;;;;;;;;;;;;;;;;;4922157;29;19923;-79
2023/04/01 06:41:43;;;;;;;;;;;;;;;;;;4905965;29;19927;-80
2023/04/01 06:44:09;;;;;;;;;;;;;;;;;;4906645;29;19940;-79
2023/04/01 06:46:35;;;;;;;;;;;;;;;;;;4905672;29;19915;-79
2023/04/01 06:49:19;;;;;;;;;;;;;;;;;;4907964;29;19915;-79
2023/04/01 06:52:20;;;;;;;;;;;;;;;;;;4904896;29;19939;-80
2023/04/01 06:55:04;;;;;;;;;;;;;;;;;;4922272;29;19919;-80
2023/04/01 06:57:58;;;;;;;;;;;;;;;;;;4909595;29;19926;-80
2023/04/01 07:00:26;;;;;;;;;;;;;;;;;;4922610;29;19915;-80
2023/04/01 07:02:53;;;;;;;;;;;;;;;;;;4906356;29;19911;-79
2023/04/01 07:05:19;;;;;;;;;;;;;;;;;;4891109;29;19915;-79
2023/04/01 07:07:44;;;;;;;;;;;;;;;;;;4921339;29;19926;-79
2023/04/01 07:10:11;;;;;;;;;;;;;;;;;;4890027;29;19958;-80
2023/04/01 07:13:06;;;;;;;;;;;;;;;;;;4919047;29;20013;-80
2023/04/01 07:15:53;;;;;;;;;;;;;;;;;;4903855;29;19915;-80
2023/04/01 07:18:19;;;;;;;;;;;;;;;;;;4918425;29;19984;-79
2023/04/01 07:20:45;;;;;;;;;;;;;;;;;;4919820;29;19915;-78
2023/04/01 07:23:10;;;;;;;;;;;;;;;;;;4889992;29;19919;-79
2023/04/01 07:25:52;;;;;;;;;;;;;;;;;;4891619;29;19926;-78
2023/04/01 07:28:29;;;;;;;;;;;;;;;;;;4921389;29;20371;-79
2023/04/01 07:31:00;;;;;;;;;;;;;;;;;;4907616;29;19925;-79
2023/04/01 07:33:26;;;;;;;;;;;;;;;;;;4906118;29;20006;-79
2023/04/01 07:35:51;;;;;;;;;;;;;;;;;;4905361;29;19915;-79
2023/04/01 07:38:17;;;;;;;;;;;;;;;;;;4921765;29;19915;-79
2023/04/01 07:40:42;;;;;;;;;;;;;;;;;;4890396;29;20312;-79
2023/04/01 07:43:08;;;;;;;;;;;;;;;;;;4906410;29;19919;-79
2023/04/01 07:45:37;;;;;;;;;;;;;;;;;;4891788;29;20384;-79
2023/04/01 07:48:02;;;;;;;;;;;;;;;;;;4907760;29;19943;-79
2023/04/01 07:50:28;;;;;;;;;;;;;;;;;;4923094;29;19927;-83
2023/04/01 07:53:03;;;;;;;;;;;;;;;;;;4921080;29;19915;-83
2023/04/01 07:55:38;;;;;;;;;;;;;;;;;;4941942;28;19923;-85
2023/04/01 07:58:08;;;;;;;;;;;;;;;;;;4942641;28;19922;-82
2023/04/01 08:00:37;;;;;;;;;;;;;;;;;;4899489;29;19915;-79
2023/04/01 08:03:14;;;;;;;;;;;;;;;;;;4913895;29;19922;-79
2023/04/01 08:05:40;;;;;;;;;;;;;;;;;;4911071;29;19915;-80
2023/04/01 08:08:06;;;;;;;;;;;;;;;;;;4927994;29;20268;-80
2023/04/01 08:10:55;;;;;;;;;;;;;;;;;;4913285;29;19924;-80
2023/04/01 08:13:40;;;;;;;;;;;;;;;;;;4923671;29;19919;-81
2023/04/01 08:16:26;;;;;;;;;;;;;;;;;;4924760;29;19916;-80
2023/04/01 08:18:54;;;;;;;;;;;;;;;;;;4923203;29;19923;-80
2023/04/01 08:21:23;;;;;;;;;;;;;;;;;;4923944;29;19923;-79
2023/04/01 08:23:48;;;;;;;;;;;;;;;;;;4923935;29;20379;-80
2023/04/01 08:26:15;;;;;;;;;;;;;;;;;;4908647;29;19915;-80
2023/04/01 08:28:42;;;;;;;;;;;;;;;;;;4909852;29;19915;-80
2023/04/01 08:31:10;;;;;;;;;;;;;;;;;;4907911;29;19954;-80
2023/04/01 08:33:36;;;;;;;;;;;;;;;;;;4909424;29;19926;-80
2023/04/01 08:36:06;;;;;;;;;;;;;;;;;;4894867;29;19915;-79
2023/04/01 08:38:32;;;;;;;;;;;;;;;;;;4925358;29;19975;-80
2023/04/01 08:40:57;;;;;;;;;;;;;;;;;;4925460;29;20010;-80
2023/04/01 08:43:28;;;;;;;;;;;;;;;;;;4909003;29;19919;-80
2023/04/01 08:45:53;;;;;;;;;;;;;;;;;;4909960;29;19923;-80
2023/04/01 08:48:19;;;;;;;;;;;;;;;;;;4907806;29;20001;-79
2023/04/01 08:50:44;;;;;;;;;;;;;;;;;;4925163;29;19951;-80
2023/04/01 08:53:24;;;;;;;;;;;;;;;;;;4928407;29;20374;-80
2023/04/01 08:55:50;;;;;;;;;;;;;;;;;;4914631;29;20006;-81
2023/04/01 08:58:16;;;;;;;;;;;;;;;;;;4901935;29;19922;-81
2023/04/01 09:00:49;;;;;;;;;;;;;;;;;;4930117;29;19930;-81
2023/04/01 09:03:24;;;;;;;;;;;;;;;;;;4931258;29;19915;-81
2023/04/01 09:05:50;;;;;;;;;;;;;;;;;;4928954;29;19915;-79
2023/04/01 09:08:17;;;;;;;;;;;;;;;;;;4898100;29;19925;-80
2023/04/01 09:10:43;;;;;;;;;;;;;;;;;;4912383;29;19915;-79
2023/04/01 09:13:31;;;;;;;;;;;;;;;;;;4913786;29;19923;-79
2023/04/01 09:15:57;;;;;;;;;;;;;;;;;;4929594;29;19940;-79
2023/04/01 09:18:24;;;;;;;;;;;;;;;;;;4926783;29;19958;-79
2023/04/01 09:20:50;;;;;;;;;;;;;;;;;;4928079;29;19955;-80
2023/04/01 09:23:16;;;;;;;;;;;;;;;;;;4910841;29;19919;-79
2023/04/01 09:25:42;;;;;;;;;;;;;;;;;;4925886;29;19919;-79
2023/04/01 09:28:08;;;;;;;;;;;;;;;;;;4926607;29;19966;-80
2023/04/01 09:30:34;;;;;;;;;;;;;;;;;;4926554;29;20479;-80
2023/04/01 09:32:59;;;;;;;;;;;;;;;;;;4908193;29;19926;-81
2023/04/01 09:35:26;;;;;;;;;;;;;;;;;;4923120;29;19911;-80
2023/04/01 09:37:58;;;;;;;;;;;;;;;;;;4923746;29;20030;-80
2023/04/01 09:40:24;;;;;;;;;;;;;;;;;;4923701;29;19911;-80
2023/04/01 09:42:55;;;;;;;;;;;;;;;;;;4925358;29;19915;-79
2023/04/01 09:45:27;;;;;;;;;;;;;;;;;;4909505;29;19915;-80
2023/04/01 09:47:53;;;;;;;;;;;;;;;;;;4924115;29;19922;-81
2023/04/01 09:50:19;;;;;;;;;;;;;;;;;;4891987;29;20351;-81
2023/04/01 09:52:45;;;;;;;;;;;;;;;;;;4908787;29;19916;-80
2023/04/01 09:55:22;;;;;;;;;;;;;;;;;;4925135;29;19970;-81
2023/04/01 09:57:48;;;;;;;;;;;;;;;;;;4908990;29;20013;-79
2023/04/01 10:00:36;;;;;;;;;;;;;;;;;;4927147;29;19918;-78
2023/04/01 10:03:04;;;;;;;;;;;;;;;;;;4892101;29;19919;-80
2023/04/01 10:05:30;;;;;;;;;;;;;;;;;;4894313;29;19974;-79
2023/04/01 10:07:56;;;;;;;;;;;;;;;;;;4893024;29;19915;-80
2023/04/01 10:10:22;;;;;;;;;;;;;;;;;;4906514;29;19930;-79
2023/04/01 10:12:48;;;;;;;;;;;;;;;;;;4921955;29;20307;-79
2023/04/01 10:15:14;;;;;;;;;;;;;;;;;;4906504;29;19915;-79
2023/04/01 10:17:40;;;;;;;;;;;;;;;;;;4923368;29;19922;-79
2023/04/01 10:20:08;;;;;;;;;;;;;;;;;;4906393;29;20005;-79
2023/04/01 10:22:36;;;;;;;;;;;;;;;;;;4909342;29;19922;-80
2023/04/01 10:25:05;;;;;;;;;;;;;;;;;;4913286;29;20154;-80
2023/04/01 10:27:31;;;;;;;;;;;;;;;;;;4894668;29;19915;-81
2023/04/01 10:30:03;;;;;;;;;;;;;;;;;;4931303;29;19931;-80
2023/04/01 10:32:29;;;;;;;;;;;;;;;;;;4932106;29;19920;-80
2023/04/01 10:34:57;;;;;;;;;;;;;;;;;;4932564;29;19919;-80
2023/04/01 10:37:24;;;;;;;;;;;;;;;;;;4930906;29;19915;-80
2023/04/01 10:39:52;;;;;;;;;;;;;;;;;;4911890;29;19915;-80
2023/04/01 10:42:24;;;;;;;;;;;;;;;;;;4895189;29;19915;-80
2023/04/01 10:45:16;;;;;;;;;;;;;;;;;;4917254;29;19915;-79
2023/04/01 10:47:45;;;;;;;;;;;;;;;;;;4915315;29;19926;-79
2023/04/01 10:50:10;;;;;;;;;;;;;;;;;;4897856;29;19911;-79
2023/04/01 10:52:36;;;;;;;;;;;;;;;;;;4895721;29;19915;-80
2023/04/01 10:55:28;;;;;;;;;;;;;;;;;;4908500;29;19969;-80
2023/04/01 10:58:20;;;;;;;;;;;;;;;;;;4926412;29;19915;-79
2023/04/01 11:01:05;;;;;;;;;;;;;;;;;;4918039;29;19915;-79
2023/04/01 11:03:49;;;;;;;;;;;;;;;;;;4933913;29;19922;-80
2023/04/01 11:06:35;;;;;;;;;;;;;;;;;;4920806;29;19915;-79
2023/04/01 11:09:02;;;;;;;;;;;;;;;;;;4917372;29;19915;-79
2023/04/01 11:11:27;;;;;;;;;;;;;;;;;;4914409;29;20002;-80
2023/04/01 11:13:53;;;;;;;;;;;;;;;;;;4914978;29;19926;-80
2023/04/01 11:16:19;;;;;;;;;;;;;;;;;;4912488;29;19919;-79
2023/04/01 11:18:45;;;;;;;;;;;;;;;;;;4913701;29;19916;-80
2023/04/01 11:21:11;;;;;;;;;;;;;;;;;;4928897;29;19940;-81
2023/04/01 11:23:36;;;;;;;;;;;;;;;;;;4928644;29;19946;-80
2023/04/01 11:26:03;;;;;;;;;;;;;;;;;;4897481;29;19918;-80
2023/04/01 11:28:48;;;;;;;;;;;;;;;;;;4913668;29;19915;-79
2023/04/01 11:31:14;;;;;;;;;;;;;;;;;;4912942;29;19930;-80
2023/04/01 11:33:40;;;;;;;;;;;;;;;;;;4931720;29;19915;-79
2023/04/01 11:36:07;;;;;;;;;;;;;;;;;;4929406;29;19946;-80
2023/04/01 11:38:33;;;;;;;;;;;;;;;;;;4927110;29;19915;-80
2023/04/01 11:41:30;;;;;;;;;;;;;;;;;;4926776;29;19919;-79
2023/04/01 11:44:31;;;;;;;;;;;;;;;;;;4916047;29;19926;-78
2023/04/01 11:47:11;;;;;;;;;;;;;;;;;;4926306;29;19915;-79
2023/04/01 11:49:39;;;;;;;;;;;;;;;;;;4910410;29;19919;-79
2023/04/01 11:52:15;;;;;;;;;;;;;;;;;;4926427;29;19946;-80
2023/04/01 11:54:41;;;;;;;;;;;;;;;;;;4910083;29;19920;-79
2023/04/01 11:57:07;;;;;;;;;;;;;;;;;;4913613;29;19950;-80
2023/04/01 11:59:32;;;;;;;;;;;;;;;;;;4928746;29;20407;-79
2023/04/01 12:01:58;;;;;;;;;;;;;;;;;;4911236;29;19919;-79
2023/04/01 12:04:23;;;;;;;;;;;;;;;;;;4896742;29;20450;-80
2023/04/01 12:06:50;;;;;;;;;;;;;;;;;;4912467;29;19939;-79
2023/04/01 12:09:16;;;;;;;;;;;;;;;;;;4893587;29;20035;-79
2023/04/01 12:11:41;;;;;;;;;;;;;;;;;;4913453;29;20348;-80
2023/04/01 12:14:07;;;;;;;;;;;;;;;;;;4896246;29;19919;-79
2023/04/01 12:16:33;;;;;;;;;;;;;;;;;;4911917;29;19943;-80
2023/04/01 12:19:01;;;;;;;;;;;;;;;;;;4914335;29;19922;-80
2023/04/01 12:21:27;;;;;;;;;;;;;;;;;;4896172;29;20458;-79
2023/04/01 12:23:52;;;;;;;;;;;;;;;;;;4928024;29;19959;-79
2023/04/01 12:26:18;;;;;;;;;;;;;;;;;;4926494;29;19926;-80
2023/04/01 12:28:44;;;;;;;;;;;;;;;;;;4933705;23;19912;-85
2023/04/01 12:31:09;;;;;;;;;;;;;;;;;;4918208;29;19920;-84
2023/04/01 12:33:35;;;;;;;;;;;;;;;;;;4887126;29;19919;-84
2023/04/01 12:36:00;;;;;;;;;;;;;;;;;;4889116;29;19915;-84
2023/04/01 12:38:26;;;;;;;;;;;;;;;;;;4922305;29;19959;-84
2023/04/01 12:40:51;;;;;;;;;;;;;;;;;;4910537;29;19919;-84
2023/04/01 12:43:20;;;;;;;;;;;;;;;;;;4926136;29;19980;-83
2023/04/01 12:45:45;;;;;;;;;;;;;;;;;;4923967;29;20014;-84
2023/04/01 12:48:11;;;;;;;;;;;;;;;;;;4909039;29;20287;-84
2023/04/01 12:50:37;;;;;;;;;;;;;;;;;;4911529;29;19958;-85
2023/04/01 12:53:03;;;;;;;;;;;;;;;;;;4911392;29;19923;-87
2023/04/01 12:55:29;;;;;;;;;;;;;;;;;;4926715;29;19926;-85
2023/04/01 12:57:54;;;;;;;;;;;;;;;;;;4926408;29;19915;-85
2023/04/01 13:00:20;;;;;;;;;;;;;;;;;;4914010;29;19915;-85
2023/04/01 13:02:51;;;;;;;;;;;;;;;;;;4926551;29;19935;-86
2023/04/01 13:05:17;;;;;;;;;;;;;;;;;;4905328;29;19915;-86
2023/04/01 13:07:43;;;;;;;;;;;;;;;;;;4903685;29;20339;-86
2023/04/01 13:10:08;;;;;;;;;;;;;;;;;;4902427;29;19926;-85
2023/04/01 13:12:34;;;;;;;;;;;;;;;;;;4917492;29;19922;-85
2023/04/01 13:14:59;;;;;;;;;;;;;;;;;;4918454;29;19923;-88
2023/04/01 13:17:25;;;;;;;;;;;;;;;;;;4918463;29;19926;-87
2023/04/01 13:19:51;;;;;;;;;;;;;;;;;;4918956;29;19978;-86
2023/04/01 13:22:16;;;;;;;;;;;;;;;;;;4903185;29;19915;-86
2023/04/01 13:24:42;;;;;;;;;;;;;;;;;;4917176;29;19915;-87
2023/04/01 13:27:07;;;;;;;;;;;;;;;;;;4916271;29;19974;-86
2023/04/01 13:29:33;;;;;;;;;;;;;;;;;;4916404;29;19942;-85
2023/04/01 13:31:58;;;;;;;;;;;;;;;;;;4916579;29;20375;-87
2023/04/01 13:34:27;;;;;;;;;;;;;;;;;;4915896;29;20295;-88
2023/04/01 13:36:52;;;;;;;;;;;;;;;;;;4884289;29;19979;-86
2023/04/01 13:39:18;;;;;;;;;;;;;;;;;;4915696;29;19918;-85
2023/04/01 13:41:43;;;;;;;;;;;;;;;;;;4916895;29;19919;-86
2023/04/01 13:44:09;;;;;;;;;;;;;;;;;;4916118;29;19946;-86
2023/04/01 13:46:34;;;;;;;;;;;;;;;;;;4916230;29;19915;-86
2023/04/01 13:49:00;;;;;;;;;;;;;;;;;;4900726;29;19919;-86
2023/04/01 13:51:26;;;;;;;;;;;;;;;;;;4917487;29;20010;-86
2023/04/01 13:53:53;;;;;;;;;;;;;;;;;;4901450;29;22535;-86
2023/04/01 13:56:19;;;;;;;;;;;;;;;;;;4886774;29;19922;-85
2023/04/01 13:58:44;;;;;;;;;;;;;;;;;;4900763;29;19915;-86
2023/04/01 14:01:10;;;;;;;;;;;;;;;;;;4900607;29;19915;-85
2023/04/01 14:03:36;;;;;;;;;;;;;;;;;;4900974;29;19979;-86
2023/04/01 14:06:03;;;;;;;;;;;;;;;;;;4899898;29;19966;-85
2023/04/01 14:08:29;;;;;;;;;;;;;;;;;;4916206;29;19912;-86
2023/04/01 14:10:55;;;;;;;;;;;;;;;;;;4900798;29;19915;-84
2023/04/01 14:13:20;;;;;;;;;;;;;;;;;;4916978;29;19920;-84
2023/04/01 14:15:46;;;;;;;;;;;;;;;;;;4915963;29;19921;-83
2023/04/01 14:18:12;;;;;;;;;;;;;;;;;;4900864;29;19919;-83
2023/04/01 14:20:38;;;;;;;;;;;;;;;;;;4918506;29;19915;-84
2023/04/01 14:23:04;;;;;;;;;;;;;;;;;;4914981;29;19915;-86
2023/04/01 14:25:29;;;;;;;;;;;;;;;;;;4899363;29;19915;-83
2023/04/01 14:27:55;;;;;;;;;;;;;;;;;;4917095;29;19922;-84
2023/04/01 14:30:21;;;;;;;;;;;;;;;;;;4884742;29;19925;-84
2023/04/01 14:32:46;;;;;;;;;;;;;;;;;;4916640;29;20019;-84
2023/04/01 14:35:12;;;;;;;;;;;;;;;;;;4899361;29;19931;-84
2023/04/01 14:37:37;;;;;;;;;;;;;;;;;;4915826;29;19911;-83
2023/04/01 14:40:03;;;;;;;;;;;;;;;;;;4919287;29;19915;-83
2023/04/01 14:42:28;;;;;;;;;;;;;;;;;;4920374;29;20346;-83
2023/04/01 14:44:55;;;;;;;;;;;;;;;;;;4902993;29;19926;-83
2023/04/01 14:47:20;;;;;;;;;;;;;;;;;;4919231;29;19939;-84
2023/04/01 14:49:46;;;;;;;;;;;;;;;;;;4920185;29;19911;-84
2023/04/01 14:52:12;;;;;;;;;;;;;;;;;;4918876;29;19925;-83
2023/04/01 14:54:37;;;;;;;;;;;;;;;;;;4902964;29;20043;-82
2023/04/01 14:57:03;;;;;;;;;;;;;;;;;;4919892;29;19915;-82
2023/04/01 14:59:28;;;;;;;;;;;;;;;;;;4919006;29;20044;-84
2023/04/01 15:01:54;;;;;;;;;;;;;;;;;;4918901;29;19938;-83
2023/04/01 15:04:19;;;;;;;;;;;;;;;;;;4918917;29;19915;-84
2023/04/01 15:06:45;;;;;;;;;;;;;;;;;;4918328;29;20024;-84
2023/04/01 15:09:11;;;;;;;;;;;;;;;;;;4903094;29;20237;-84
2023/04/01 15:11:37;;;;;;;;;;;;;;;;;;4920495;29;19930;-82
2023/04/01 15:14:02;;;;;;;;;;;;;;;;;;4919781;29;20276;-82
2023/04/01 15:16:28;;;;;;;;;;;;;;;;;;4919710;29;19971;-82
2023/04/01 15:18:54;;;;;;;;;;;;;;;;;;4902639;29;19938;-84
2023/04/01 15:21:19;;;;;;;;;;;;;;;;;;4902969;29;19915;-83
2023/04/01 15:23:45;;;;;;;;;;;;;;;;;;4918894;29;19922;-82
2023/04/01 15:26:10;;;;;;;;;;;;;;;;;;4918923;29;19937;-81
2023/04/01 15:28:36;;;;;;;;;;;;;;;;;;4919584;29;19963;-81
2023/04/01 15:31:02;;;;;;;;;;;;;;;;;;4903462;29;19933;-82
2023/04/01 15:33:27;;;;;;;;;;;;;;;;;;4920148;29;20404;-81
2023/04/01 15:35:53;;;;;;;;;;;;;;;;;;4918766;29;20275;-82
2023/04/01 15:38:18;;;;;;;;;;;;;;;;;;4903568;29;19926;-81
2023/04/01 15:40:44;;;;;;;;;;;;;;;;;;4918684;29;19951;-83
2023/04/01 15:43:10;;;;;;;;;;;;;;;;;;4903598;29;20018;-83
2023/04/01 15:45:35;;;;;;;;;;;;;;;;;;4918497;29;20439;-82
2023/04/01 15:48:01;;;;;;;;;;;;;;;;;;4918308;29;19990;-80
2023/04/01 15:50:26;;;;;;;;;;;;;;;;;;4918133;29;19915;-81
2023/04/01 15:52:52;;;;;;;;;;;;;;;;;;4886930;29;19926;-81
2023/04/01 15:55:18;;;;;;;;;;;;;;;;;;4918551;29;19997;-81
2023/04/01 15:57:44;;;;;;;;;;;;;;;;;;4918643;29;19950;-82
2023/04/01 16:00:10;;;;;;;;;;;;;;;;;;4918815;29;19915;-82
2023/04/01 16:02:39;;;;;;;;;;;;;;;;;;4918126;29;19919;-83
2023/04/01 16:05:05;;;;;;;;;;;;;;;;;;4902192;29;19911;-82
2023/04/01 16:07:31;;;;;;;;;;;;;;;;;;4886666;29;19939;-83
2023/04/01 16:09:56;;;;;;;;;;;;;;;;;;4886388;29;19915;-83
2023/04/01 16:12:23;;;;;;;;;;;;;;;;;;4917518;29;20022;-81
2023/04/01 16:14:49;;;;;;;;;;;;;;;;;;4917052;29;19920;-82
2023/04/01 16:17:15;;;;;;;;;;;;;;;;;;4886319;29;19915;-82
2023/04/01 16:19:41;;;;;;;;;;;;;;;;;;4901662;29;19998;-83
2023/04/01 16:22:06;;;;;;;;;;;;;;;;;;4917384;29;19919;-83
2023/04/01 16:24:32;;;;;;;;;;;;;;;;;;4886386;29;19982;-81
2023/04/01 16:26:57;;;;;;;;;;;;;;;;;;4901798;29;19916;-83
2023/04/01 16:29:23;;;;;;;;;;;;;;;;;;4901844;29;19923;-82
2023/04/01 16:31:49;;;;;;;;;;;;;;;;;;4901697;29;19915;-82
2023/04/01 16:34:15;;;;;;;;;;;;;;;;;;4886494;29;20002;-80
2023/04/01 16:36:41;;;;;;;;;;;;;;;;;;4900908;29;20016;-81
2023/04/01 16:39:06;;;;;;;;;;;;;;;;;;4917551;29;19915;-81
2023/04/01 16:41:32;;;;;;;;;;;;;;;;;;4901819;29;20023;-80
2023/04/01 16:43:57;;;;;;;;;;;;;;;;;;4902011;29;20299;-82
2023/04/01 16:46:23;;;;;;;;;;;;;;;;;;4901445;29;19992;-81
2023/04/01 16:48:49;;;;;;;;;;;;;;;;;;4917158;29;19958;-83